sensor_id;sensor_type;location;lat;lon;timestamp;pressure;altitude;pressure_sealevel;temperature
48003;BMP280;33768;48.578;11.574;2022-07-29T00:00:42;96426.25;;;20.78
48003;BMP280;33768;48.578;11.574;2022-07-29T00:03:49;96415.16;;;20.78
48003;BMP280;33768;48.578;11.574;2022-07-29T00:06:53;96410.94;;;20.77
48003;BMP280;33768;48.578;11.574;2022-07-29T00:09:57;96407.59;;;20.79
48003;BMP280;33768;48.578;11.574;2022-07-29T00:13:01;96393.91;;;20.71
48003;BMP280;33768;48.578;11.574;2022-07-29T00:16:05;96395.06;;;20.69
48003;BMP280;33768;48.578;11.574;2022-07-29T00:19:09;96383.88;;;20.67
48003;BMP280;33768;48.578;11.574;2022-07-29T00:22:13;96380.97;;;20.65
48003;BMP280;33768;48.578;11.574;2022-07-29T00:25:17;96367.41;;;20.59
48003;BMP280;33768;48.578;11.574;2022-07-29T00:28:21;96371.94;;;20.55
48003;BMP280;33768;48.578;11.574;2022-07-29T00:31:26;96371.66;;;20.51
48003;BMP280;33768;48.578;11.574;2022-07-29T00:34:30;96384.41;;;20.44
48003;BMP280;33768;48.578;11.574;2022-07-29T00:38:00;96388.22;;;20.39
48003;BMP280;33768;48.578;11.574;2022-07-29T00:41:05;96401.91;;;20.38
48003;BMP280;33768;48.578;11.574;2022-07-29T00:44:09;96402.53;;;20.36
48003;BMP280;33768;48.578;11.574;2022-07-29T00:47:13;96400.81;;;20.31
48003;BMP280;33768;48.578;11.574;2022-07-29T00:50:17;96402.72;;;20.29
48003;BMP280;33768;48.578;11.574;2022-07-29T00:53:22;96399.47;;;20.32
48003;BMP280;33768;48.578;11.574;2022-07-29T00:56:26;96398.75;;;20.32
48003;BMP280;33768;48.578;11.574;2022-07-29T00:59:31;96382.72;;;20.21
48003;BMP280;33768;48.578;11.574;2022-07-29T01:02:35;96386.44;;;20.14
48003;BMP280;33768;48.578;11.574;2022-07-29T01:05:41;96393.41;;;20.15
48003;BMP280;33768;48.578;11.574;2022-07-29T01:08:47;96381.44;;;20.22
48003;BMP280;33768;48.578;11.574;2022-07-29T01:11:52;96402.75;;;20.19
48003;BMP280;33768;48.578;11.574;2022-07-29T01:14:56;96402.63;;;20.08
48003;BMP280;33768;48.578;11.574;2022-07-29T01:30:50;96399.13;;;20.07
48003;BMP280;33768;48.578;11.574;2022-07-29T01:33:58;96401.19;;;19.98
48003;BMP280;33768;48.578;11.574;2022-07-29T01:37:18;96385.50;;;19.91
48003;BMP280;33768;48.578;11.574;2022-07-29T01:40:27;96380.38;;;19.87
48003;BMP280;33768;48.578;11.574;2022-07-29T01:43:39;96373.53;;;19.88
48003;BMP280;33768;48.578;11.574;2022-07-29T01:46:52;96370.63;;;19.86
48003;BMP280;33768;48.578;11.574;2022-07-29T01:49:59;96375.28;;;19.74
48003;BMP280;33768;48.578;11.574;2022-07-29T01:53:07;96359.41;;;19.75
48003;BMP280;33768;48.578;11.574;2022-07-29T01:56:13;96348.38;;;19.66
48003;BMP280;33768;48.578;11.574;2022-07-29T01:59:18;96356.66;;;19.66
48003;BMP280;33768;48.578;11.574;2022-07-29T02:02:26;96360.56;;;19.72
48003;BMP280;33768;48.578;11.574;2022-07-29T02:05:32;96351.56;;;19.72
48003;BMP280;33768;48.578;11.574;2022-07-29T02:08:39;96335.81;;;19.65
48003;BMP280;33768;48.578;11.574;2022-07-29T02:11:48;96338.09;;;19.38
48003;BMP280;33768;48.578;11.574;2022-07-29T02:14:54;96334.59;;;19.19
48003;BMP280;33768;48.578;11.574;2022-07-29T02:18:06;96338.81;;;19.29
48003;BMP280;33768;48.578;11.574;2022-07-29T02:21:11;96352.19;;;19.33
48003;BMP280;33768;48.578;11.574;2022-07-29T02:24:18;96353.34;;;19.39
48003;BMP280;33768;48.578;11.574;2022-07-29T02:27:23;96354.06;;;19.49
48003;BMP280;33768;48.578;11.574;2022-07-29T02:30:30;96345.47;;;19.54
48003;BMP280;33768;48.578;11.574;2022-07-29T02:33:35;96354.94;;;19.61
48003;BMP280;33768;48.578;11.574;2022-07-29T02:36:40;96356.38;;;19.62
48003;BMP280;33768;48.578;11.574;2022-07-29T02:39:46;96347.19;;;19.59
48003;BMP280;33768;48.578;11.574;2022-07-29T02:42:52;96366.59;;;19.50
48003;BMP280;33768;48.578;11.574;2022-07-29T02:45:57;96356.13;;;19.39
48003;BMP280;33768;48.578;11.574;2022-07-29T02:49:10;96357.75;;;19.23
48003;BMP280;33768;48.578;11.574;2022-07-29T02:52:19;96345.97;;;19.13
48003;BMP280;33768;48.578;11.574;2022-07-29T02:55:44;96349.19;;;19.10
48003;BMP280;33768;48.578;11.574;2022-07-29T02:58:55;96353.25;;;19.09
48003;BMP280;33768;48.578;11.574;2022-07-29T03:01:59;96351.63;;;19.06
48003;BMP280;33768;48.578;11.574;2022-07-29T03:05:06;96359.50;;;19.10
48003;BMP280;33768;48.578;11.574;2022-07-29T03:08:12;96352.94;;;19.14
48003;BMP280;33768;48.578;11.574;2022-07-29T03:11:18;96359.94;;;19.15
48003;BMP280;33768;48.578;11.574;2022-07-29T03:14:23;96356.16;;;19.20
48003;BMP280;33768;48.578;11.574;2022-07-29T03:17:27;96357.75;;;19.14
48003;BMP280;33768;48.578;11.574;2022-07-29T03:20:32;96360.09;;;19.08
48003;BMP280;33768;48.578;11.574;2022-07-29T03:23:36;96366.50;;;19.01
48003;BMP280;33768;48.578;11.574;2022-07-29T03:26:40;96350.75;;;18.94
48003;BMP280;33768;48.578;11.574;2022-07-29T03:29:44;96349.47;;;18.95
48003;BMP280;33768;48.578;11.574;2022-07-29T03:32:50;96354.13;;;18.93
48003;BMP280;33768;48.578;11.574;2022-07-29T03:35:54;96351.94;;;18.91
48003;BMP280;33768;48.578;11.574;2022-07-29T03:38:59;96359.66;;;18.93
48003;BMP280;33768;48.578;11.574;2022-07-29T03:42:05;96353.53;;;18.94
48003;BMP280;33768;48.578;11.574;2022-07-29T03:45:13;96353.97;;;19.00
48003;BMP280;33768;48.578;11.574;2022-07-29T03:48:21;96359.66;;;19.12
48003;BMP280;33768;48.578;11.574;2022-07-29T03:51:26;96358.34;;;19.03
48003;BMP280;33768;48.578;11.574;2022-07-29T03:54:30;96364.91;;;19.08
48003;BMP280;33768;48.578;11.574;2022-07-29T03:57:36;96364.28;;;19.00
48003;BMP280;33768;48.578;11.574;2022-07-29T04:00:42;96364.84;;;18.89
48003;BMP280;33768;48.578;11.574;2022-07-29T04:03:46;96363.81;;;18.84
48003;BMP280;33768;48.578;11.574;2022-07-29T04:06:50;96364.16;;;18.98
48003;BMP280;33768;48.578;11.574;2022-07-29T04:09:54;96375.78;;;19.15
48003;BMP280;33768;48.578;11.574;2022-07-29T04:12:59;96394.16;;;19.29
48003;BMP280;33768;48.578;11.574;2022-07-29T04:16:04;96394.00;;;19.46
48003;BMP280;33768;48.578;11.574;2022-07-29T04:19:08;96395.44;;;19.47
48003;BMP280;33768;48.578;11.574;2022-07-29T04:22:12;96388.31;;;19.35
48003;BMP280;33768;48.578;11.574;2022-07-29T04:25:17;96381.75;;;19.40
48003;BMP280;33768;48.578;11.574;2022-07-29T04:28:21;96394.41;;;19.52
48003;BMP280;33768;48.578;11.574;2022-07-29T04:31:25;96395.84;;;19.62
48003;BMP280;33768;48.578;11.574;2022-07-29T04:34:29;96394.25;;;19.69
48003;BMP280;33768;48.578;11.574;2022-07-29T04:37:33;96382.75;;;19.63
48003;BMP280;33768;48.578;11.574;2022-07-29T04:40:37;96396.72;;;19.65
48003;BMP280;33768;48.578;11.574;2022-07-29T04:43:41;96396.31;;;19.68
48003;BMP280;33768;48.578;11.574;2022-07-29T04:46:45;96399.66;;;19.67
48003;BMP280;33768;48.578;11.574;2022-07-29T04:49:50;96409.13;;;19.73
48003;BMP280;33768;48.578;11.574;2022-07-29T04:52:54;96400.06;;;19.73
48003;BMP280;33768;48.578;11.574;2022-07-29T04:55:58;96398.03;;;19.73
48003;BMP280;33768;48.578;11.574;2022-07-29T04:59:02;96402.69;;;19.80
48003;BMP280;33768;48.578;11.574;2022-07-29T05:02:06;96399.63;;;19.85
48003;BMP280;33768;48.578;11.574;2022-07-29T05:05:11;96395.81;;;19.90
48003;BMP280;33768;48.578;11.574;2022-07-29T05:08:15;96393.34;;;19.94
48003;BMP280;33768;48.578;11.574;2022-07-29T05:11:19;96390.13;;;19.98
48003;BMP280;33768;48.578;11.574;2022-07-29T05:14:23;96395.66;;;19.98
48003;BMP280;33768;48.578;11.574;2022-07-29T05:17:27;96396.25;;;19.96
48003;BMP280;33768;48.578;11.574;2022-07-29T05:20:31;96395.66;;;19.98
48003;BMP280;33768;48.578;11.574;2022-07-29T05:23:36;96396.13;;;19.94
48003;BMP280;33768;48.578;11.574;2022-07-29T05:26:40;96397.88;;;19.90
48003;BMP280;33768;48.578;11.574;2022-07-29T05:29:44;96399.63;;;19.85
48003;BMP280;33768;48.578;11.574;2022-07-29T05:32:48;96401.84;;;19.77
48003;BMP280;33768;48.578;11.574;2022-07-29T05:35:52;96405.75;;;19.74
48003;BMP280;33768;48.578;11.574;2022-07-29T05:38:57;96397.91;;;19.71
48003;BMP280;33768;48.578;11.574;2022-07-29T05:42:01;96398.91;;;19.66
48003;BMP280;33768;48.578;11.574;2022-07-29T05:45:06;96399.78;;;19.69
48003;BMP280;33768;48.578;11.574;2022-07-29T05:48:10;96396.88;;;19.57
48003;BMP280;33768;48.578;11.574;2022-07-29T05:51:15;96401.41;;;19.62
48003;BMP280;33768;48.578;11.574;2022-07-29T05:54:19;96410.56;;;19.74
48003;BMP280;33768;48.578;11.574;2022-07-29T05:57:23;96413.63;;;19.87
48003;BMP280;33768;48.578;11.574;2022-07-29T06:00:28;96413.34;;;19.83
48003;BMP280;33768;48.578;11.574;2022-07-29T06:03:33;96412.31;;;19.70
48003;BMP280;33768;48.578;11.574;2022-07-29T06:06:38;96409.25;;;19.75
48003;BMP280;33768;48.578;11.574;2022-07-29T06:09:42;96418.59;;;19.79
48003;BMP280;33768;48.578;11.574;2022-07-29T06:12:46;96417.56;;;19.84
48003;BMP280;33768;48.578;11.574;2022-07-29T06:15:50;96423.22;;;19.96
48003;BMP280;33768;48.578;11.574;2022-07-29T06:18:54;96421.03;;;19.94
48003;BMP280;33768;48.578;11.574;2022-07-29T06:21:59;96416.63;;;20.01
48003;BMP280;33768;48.578;11.574;2022-07-29T06:25:03;96415.31;;;20.11
48003;BMP280;33768;48.578;11.574;2022-07-29T06:28:07;96416.41;;;20.27
48003;BMP280;33768;48.578;11.574;2022-07-29T06:31:11;96414.19;;;20.35
48003;BMP280;33768;48.578;11.574;2022-07-29T06:34:15;96413.31;;;20.41
48003;BMP280;33768;48.578;11.574;2022-07-29T06:37:20;96412.66;;;20.52
48003;BMP280;33768;48.578;11.574;2022-07-29T06:40:26;96408.94;;;20.69
48003;BMP280;33768;48.578;11.574;2022-07-29T06:43:49;96407.97;;;20.85
48003;BMP280;33768;48.578;11.574;2022-07-29T06:46:55;96408.66;;;20.95
48003;BMP280;33768;48.578;11.574;2022-07-29T06:49:59;96402.44;;;21.05
48003;BMP280;33768;48.578;11.574;2022-07-29T06:53:04;96411.75;;;21.10
48003;BMP280;33768;48.578;11.574;2022-07-29T06:56:08;96404.81;;;21.20
48003;BMP280;33768;48.578;11.574;2022-07-29T06:59:13;96405.47;;;21.30
48003;BMP280;33768;48.578;11.574;2022-07-29T07:02:17;96408.91;;;21.40
48003;BMP280;33768;48.578;11.574;2022-07-29T07:05:21;96417.69;;;21.57
48003;BMP280;33768;48.578;11.574;2022-07-29T07:08:25;96426.56;;;21.76
48003;BMP280;33768;48.578;11.574;2022-07-29T07:11:29;96424.41;;;21.86
48003;BMP280;33768;48.578;11.574;2022-07-29T07:14:34;96429.41;;;21.99
48003;BMP280;33768;48.578;11.574;2022-07-29T07:17:38;96420.03;;;22.15
48003;BMP280;33768;48.578;11.574;2022-07-29T07:20:42;96412.69;;;22.42
48003;BMP280;33768;48.578;11.574;2022-07-29T07:23:46;96416.44;;;22.69
48003;BMP280;33768;48.578;11.574;2022-07-29T07:26:50;96410.59;;;23.11
48003;BMP280;33768;48.578;11.574;2022-07-29T07:29:55;96418.47;;;23.61
48003;BMP280;33768;48.578;11.574;2022-07-29T07:32:59;96408.53;;;24.08
48003;BMP280;33768;48.578;11.574;2022-07-29T07:36:03;96408.34;;;24.55
48003;BMP280;33768;48.578;11.574;2022-07-29T07:39:07;96407.53;;;25.06
48003;BMP280;33768;48.578;11.574;2022-07-29T07:42:12;96401.34;;;25.62
48003;BMP280;33768;48.578;11.574;2022-07-29T07:45:16;96389.97;;;26.02
48003;BMP280;33768;48.578;11.574;2022-07-29T07:48:21;96394.00;;;26.43
48003;BMP280;33768;48.578;11.574;2022-07-29T07:51:25;96383.00;;;26.77
48003;BMP280;33768;48.578;11.574;2022-07-29T07:54:29;96376.00;;;27.09
48003;BMP280;33768;48.578;11.574;2022-07-29T07:57:34;96375.22;;;27.24
48003;BMP280;33768;48.578;11.574;2022-07-29T08:00:38;96372.66;;;27.62
48003;BMP280;33768;48.578;11.574;2022-07-29T08:03:42;96371.63;;;28.05
48003;BMP280;33768;48.578;11.574;2022-07-29T08:06:47;96367.41;;;28.60
48003;BMP280;33768;48.578;11.574;2022-07-29T08:09:53;96364.41;;;29.12
48003;BMP280;33768;48.578;11.574;2022-07-29T08:12:58;96362.34;;;29.55
48003;BMP280;33768;48.578;11.574;2022-07-29T08:16:02;96354.13;;;30.05
48003;BMP280;33768;48.578;11.574;2022-07-29T08:19:15;96355.47;;;30.71
48003;BMP280;33768;48.578;11.574;2022-07-29T08:22:19;96354.91;;;31.27
48003;BMP280;33768;48.578;11.574;2022-07-29T08:25:23;96351.81;;;31.71
48003;BMP280;33768;48.578;11.574;2022-07-29T08:28:27;96349.91;;;32.09
48003;BMP280;33768;48.578;11.574;2022-07-29T08:31:31;96347.56;;;32.28
48003;BMP280;33768;48.578;11.574;2022-07-29T08:34:35;96352.63;;;32.34
48003;BMP280;33768;48.578;11.574;2022-07-29T08:37:39;96345.16;;;32.81
48003;BMP280;33768;48.578;11.574;2022-07-29T08:40:44;96355.69;;;33.13
48003;BMP280;33768;48.578;11.574;2022-07-29T08:43:49;96364.22;;;33.52
48003;BMP280;33768;48.578;11.574;2022-07-29T08:46:53;96357.22;;;33.98
48003;BMP280;33768;48.578;11.574;2022-07-29T08:49:58;96352.84;;;34.36
48003;BMP280;33768;48.578;11.574;2022-07-29T08:53:02;96355.81;;;34.46
48003;BMP280;33768;48.578;11.574;2022-07-29T08:56:07;96349.22;;;34.84
48003;BMP280;33768;48.578;11.574;2022-07-29T08:59:13;96344.72;;;35.22
48003;BMP280;33768;48.578;11.574;2022-07-29T09:02:22;96344.72;;;35.22
48003;BMP280;33768;48.578;11.574;2022-07-29T09:05:26;96341.03;;;35.10
48003;BMP280;33768;48.578;11.574;2022-07-29T09:08:32;96350.47;;;35.28
48003;BMP280;33768;48.578;11.574;2022-07-29T09:11:37;96349.09;;;35.33
48003;BMP280;33768;48.578;11.574;2022-07-29T09:14:41;96345.47;;;35.25
48003;BMP280;33768;48.578;11.574;2022-07-29T09:17:47;96344.09;;;36.08
48003;BMP280;33768;48.578;11.574;2022-07-29T09:20:52;96337.38;;;36.68
48003;BMP280;33768;48.578;11.574;2022-07-29T09:24:15;96331.78;;;36.90
48003;BMP280;33768;48.578;11.574;2022-07-29T09:27:25;96329.06;;;37.39
48003;BMP280;33768;48.578;11.574;2022-07-29T09:30:30;96325.59;;;37.84
48003;BMP280;33768;48.578;11.574;2022-07-29T09:33:34;96327.72;;;37.99
48003;BMP280;33768;48.578;11.574;2022-07-29T09:36:46;96327.00;;;37.55
48003;BMP280;33768;48.578;11.574;2022-07-29T09:39:50;96322.47;;;36.75
48003;BMP280;33768;48.578;11.574;2022-07-29T09:42:55;96332.59;;;35.92
48003;BMP280;33768;48.578;11.574;2022-07-29T09:46:19;96323.00;;;35.48
48003;BMP280;33768;48.578;11.574;2022-07-29T09:49:24;96326.91;;;35.14
48003;BMP280;33768;48.578;11.574;2022-07-29T09:52:29;96318.78;;;34.87
48003;BMP280;33768;48.578;11.574;2022-07-29T09:55:46;96331.50;;;33.84
48003;BMP280;33768;48.578;11.574;2022-07-29T09:59:05;96334.28;;;33.40
48003;BMP280;33768;48.578;11.574;2022-07-29T10:02:12;96337.22;;;33.08
48003;BMP280;33768;48.578;11.574;2022-07-29T10:05:25;96331.66;;;32.78
48003;BMP280;33768;48.578;11.574;2022-07-29T10:08:29;96330.72;;;32.67
48003;BMP280;33768;48.578;11.574;2022-07-29T10:11:34;96338.13;;;32.49
48003;BMP280;33768;48.578;11.574;2022-07-29T10:14:39;96333.31;;;32.24
48003;BMP280;33768;48.578;11.574;2022-07-29T10:17:43;96331.44;;;32.68
48003;BMP280;33768;48.578;11.574;2022-07-29T10:20:48;96336.22;;;33.29
48003;BMP280;33768;48.578;11.574;2022-07-29T10:23:53;96329.69;;;34.03
48003;BMP280;33768;48.578;11.574;2022-07-29T10:26:59;96332.06;;;34.20
48003;BMP280;33768;48.578;11.574;2022-07-29T10:30:04;96334.03;;;34.60
48003;BMP280;33768;48.578;11.574;2022-07-29T10:43:36;96323.16;;;36.66
48003;BMP280;33768;48.578;11.574;2022-07-29T10:46:42;96319.69;;;36.93
48003;BMP280;33768;48.578;11.574;2022-07-29T10:50:02;96311.88;;;36.93
48003;BMP280;33768;48.578;11.574;2022-07-29T10:53:06;96311.75;;;36.54
48003;BMP280;33768;48.578;11.574;2022-07-29T10:56:24;96312.97;;;36.22
48003;BMP280;33768;48.578;11.574;2022-07-29T10:59:30;96310.25;;;35.53
48003;BMP280;33768;48.578;11.574;2022-07-29T11:05:55;96311.22;;;35.79
48003;BMP280;33768;48.578;11.574;2022-07-29T11:09:18;96312.50;;;35.63
48003;BMP280;33768;48.578;11.574;2022-07-29T11:15:53;96324.25;;;33.33
48003;BMP280;33768;48.578;11.574;2022-07-29T11:22:32;96325.75;;;32.33
48003;BMP280;33768;48.578;11.574;2022-07-29T11:25:37;96325.94;;;32.10
48003;BMP280;33768;48.578;11.574;2022-07-29T11:32:08;96309.25;;;34.10
48003;BMP280;33768;48.578;11.574;2022-07-29T11:35:21;96299.91;;;35.09
48003;BMP280;33768;48.578;11.574;2022-07-29T11:38:27;96297.03;;;35.83
48003;BMP280;33768;48.578;11.574;2022-07-29T11:41:32;96295.25;;;36.27
48003;BMP280;33768;48.578;11.574;2022-07-29T11:51:17;96291.50;;;35.99
48003;BMP280;33768;48.578;11.574;2022-07-29T11:54:25;96287.22;;;35.98
48003;BMP280;33768;48.578;11.574;2022-07-29T11:57:30;96283.97;;;36.45
48003;BMP280;33768;48.578;11.574;2022-07-29T12:00:38;96279.16;;;36.83
48003;BMP280;33768;48.578;11.574;2022-07-29T12:03:42;96276.31;;;36.85
48003;BMP280;33768;48.578;11.574;2022-07-29T12:06:50;96272.78;;;36.90
48003;BMP280;33768;48.578;11.574;2022-07-29T12:09:55;96265.03;;;37.26
48003;BMP280;33768;48.578;11.574;2022-07-29T12:12:59;96280.63;;;37.01
48003;BMP280;33768;48.578;11.574;2022-07-29T12:16:03;96275.56;;;36.72
48003;BMP280;33768;48.578;11.574;2022-07-29T12:19:07;96269.94;;;36.94
48003;BMP280;33768;48.578;11.574;2022-07-29T12:22:12;96268.56;;;37.07
48003;BMP280;33768;48.578;11.574;2022-07-29T12:25:16;96260.78;;;37.25
48003;BMP280;33768;48.578;11.574;2022-07-29T12:28:22;96256.38;;;36.77
48003;BMP280;33768;48.578;11.574;2022-07-29T12:31:27;96260.25;;;35.97
48003;BMP280;33768;48.578;11.574;2022-07-29T12:34:31;96262.72;;;35.52
48003;BMP280;33768;48.578;11.574;2022-07-29T12:37:36;96265.59;;;35.54
48003;BMP280;33768;48.578;11.574;2022-07-29T12:40:45;96263.31;;;36.34
48003;BMP280;33768;48.578;11.574;2022-07-29T12:43:54;96259.78;;;36.44
48003;BMP280;33768;48.578;11.574;2022-07-29T12:47:04;96265.31;;;36.10
48003;BMP280;33768;48.578;11.574;2022-07-29T12:50:11;96255.97;;;35.96
48003;BMP280;33768;48.578;11.574;2022-07-29T12:53:17;96251.78;;;35.17
48003;BMP280;33768;48.578;11.574;2022-07-29T12:56:21;96263.34;;;34.17
48003;BMP280;33768;48.578;11.574;2022-07-29T12:59:25;96263.34;;;33.71
48003;BMP280;33768;48.578;11.574;2022-07-29T13:02:30;96258.31;;;34.10
48003;BMP280;33768;48.578;11.574;2022-07-29T13:05:42;96250.31;;;34.49
48003;BMP280;33768;48.578;11.574;2022-07-29T13:09:19;96246.34;;;34.72
48003;BMP280;33768;48.578;11.574;2022-07-29T13:12:23;96241.53;;;34.26
48003;BMP280;33768;48.578;11.574;2022-07-29T13:15:28;96253.00;;;33.42
48003;BMP280;33768;48.578;11.574;2022-07-29T13:18:34;96247.31;;;33.01
48003;BMP280;33768;48.578;11.574;2022-07-29T13:21:40;96241.44;;;32.87
48003;BMP280;33768;48.578;11.574;2022-07-29T13:24:53;96244.22;;;32.85
48003;BMP280;33768;48.578;11.574;2022-07-29T13:27:59;96245.84;;;32.96
48003;BMP280;33768;48.578;11.574;2022-07-29T13:31:04;96243.22;;;33.96
48003;BMP280;33768;48.578;11.574;2022-07-29T13:34:08;96245.03;;;34.22
48003;BMP280;33768;48.578;11.574;2022-07-29T13:37:13;96262.22;;;33.42
48003;BMP280;33768;48.578;11.574;2022-07-29T13:40:18;96251.63;;;32.67
48003;BMP280;33768;48.578;11.574;2022-07-29T13:43:22;96250.72;;;32.57
48003;BMP280;33768;48.578;11.574;2022-07-29T13:46:26;96237.97;;;32.91
48003;BMP280;33768;48.578;11.574;2022-07-29T13:49:30;96240.25;;;33.00
48003;BMP280;33768;48.578;11.574;2022-07-29T13:52:35;96243.09;;;32.65
48003;BMP280;33768;48.578;11.574;2022-07-29T13:55:39;96236.69;;;32.26
48003;BMP280;33768;48.578;11.574;2022-07-29T13:58:43;96233.22;;;31.65
48003;BMP280;33768;48.578;11.574;2022-07-29T14:01:48;96238.91;;;31.38
48003;BMP280;33768;48.578;11.574;2022-07-29T14:04:55;96233.13;;;31.05
48003;BMP280;33768;48.578;11.574;2022-07-29T14:07:59;96236.78;;;30.83
48003;BMP280;33768;48.578;11.574;2022-07-29T14:11:04;96231.66;;;30.75
48003;BMP280;33768;48.578;11.574;2022-07-29T14:14:08;96221.09;;;30.51
48003;BMP280;33768;48.578;11.574;2022-07-29T14:17:14;96225.91;;;30.21
48003;BMP280;33768;48.578;11.574;2022-07-29T14:20:19;96221.78;;;30.01
48003;BMP280;33768;48.578;11.574;2022-07-29T14:23:23;96218.19;;;29.98
48003;BMP280;33768;48.578;11.574;2022-07-29T14:26:27;96222.97;;;30.17
48003;BMP280;33768;48.578;11.574;2022-07-29T14:29:31;96218.13;;;30.20
48003;BMP280;33768;48.578;11.574;2022-07-29T14:32:36;96222.25;;;29.93
48003;BMP280;33768;48.578;11.574;2022-07-29T14:35:40;96223.13;;;29.75
48003;BMP280;33768;48.578;11.574;2022-07-29T14:38:44;96217.63;;;29.58
48003;BMP280;33768;48.578;11.574;2022-07-29T14:41:49;96225.69;;;29.46
48003;BMP280;33768;48.578;11.574;2022-07-29T14:44:53;96233.06;;;29.33
48003;BMP280;33768;48.578;11.574;2022-07-29T14:47:57;96241.66;;;29.39
48003;BMP280;33768;48.578;11.574;2022-07-29T14:51:02;96249.63;;;29.26
48003;BMP280;33768;48.578;11.574;2022-07-29T14:54:06;96264.72;;;28.94
48003;BMP280;33768;48.578;11.574;2022-07-29T14:57:10;96259.28;;;28.59
48003;BMP280;33768;48.578;11.574;2022-07-29T15:00:16;96248.50;;;28.32
48003;BMP280;33768;48.578;11.574;2022-07-29T15:03:20;96254.81;;;28.14
48003;BMP280;33768;48.578;11.574;2022-07-29T15:06:25;96255.13;;;28.02
48003;BMP280;33768;48.578;11.574;2022-07-29T15:09:28;96262.16;;;28.03
48003;BMP280;33768;48.578;11.574;2022-07-29T15:12:32;96259.75;;;27.96
48003;BMP280;33768;48.578;11.574;2022-07-29T15:15:36;96271.22;;;27.85
48003;BMP280;33768;48.578;11.574;2022-07-29T15:18:41;96267.47;;;27.96
48003;BMP280;33768;48.578;11.574;2022-07-29T15:21:45;96265.38;;;27.96
48003;BMP280;33768;48.578;11.574;2022-07-29T15:24:49;96259.13;;;27.98
48003;BMP280;33768;48.578;11.574;2022-07-29T15:27:53;96269.44;;;27.93
48003;BMP280;33768;48.578;11.574;2022-07-29T15:30:58;96266.34;;;28.02
48003;BMP280;33768;48.578;11.574;2022-07-29T15:34:02;96278.06;;;28.16
48003;BMP280;33768;48.578;11.574;2022-07-29T15:37:06;96271.53;;;28.10
48003;BMP280;33768;48.578;11.574;2022-07-29T15:40:10;96275.78;;;27.94
48003;BMP280;33768;48.578;11.574;2022-07-29T15:43:14;96279.66;;;27.85
48003;BMP280;33768;48.578;11.574;2022-07-29T15:46:19;96280.56;;;27.72
48003;BMP280;33768;48.578;11.574;2022-07-29T15:50:02;96279.59;;;27.66
48003;BMP280;33768;48.578;11.574;2022-07-29T15:53:07;96271.81;;;27.64
48003;BMP280;33768;48.578;11.574;2022-07-29T15:56:11;96267.50;;;27.61
48003;BMP280;33768;48.578;11.574;2022-07-29T15:59:16;96281.13;;;27.51
48003;BMP280;33768;48.578;11.574;2022-07-29T16:02:20;96276.31;;;27.36
48003;BMP280;33768;48.578;11.574;2022-07-29T16:05:24;96279.09;;;27.19
48003;BMP280;33768;48.578;11.574;2022-07-29T16:08:28;96284.78;;;27.04
48003;BMP280;33768;48.578;11.574;2022-07-29T16:11:32;96288.88;;;26.86
48003;BMP280;33768;48.578;11.574;2022-07-29T16:14:36;96288.06;;;26.83
48003;BMP280;33768;48.578;11.574;2022-07-29T16:17:40;96287.94;;;26.79
48003;BMP280;33768;48.578;11.574;2022-07-29T16:20:44;96282.97;;;26.63
48003;BMP280;33768;48.578;11.574;2022-07-29T16:23:48;96292.91;;;26.50
48003;BMP280;33768;48.578;11.574;2022-07-29T16:26:53;96296.66;;;26.40
48003;BMP280;33768;48.578;11.574;2022-07-29T16:29:57;96302.34;;;26.26
48003;BMP280;33768;48.578;11.574;2022-07-29T16:33:02;96303.88;;;26.29
48003;BMP280;33768;48.578;11.574;2022-07-29T16:36:06;96297.56;;;26.29
48003;BMP280;33768;48.578;11.574;2022-07-29T16:39:10;96297.22;;;26.21
48003;BMP280;33768;48.578;11.574;2022-07-29T16:42:15;96311.34;;;26.09
48003;BMP280;33768;48.578;11.574;2022-07-29T16:45:19;96313.22;;;25.90
48003;BMP280;33768;48.578;11.574;2022-07-29T16:48:23;96322.63;;;25.68
48003;BMP280;33768;48.578;11.574;2022-07-29T16:51:27;96313.09;;;25.44
48003;BMP280;33768;48.578;11.574;2022-07-29T16:54:32;96321.44;;;25.29
48003;BMP280;33768;48.578;11.574;2022-07-29T16:57:37;96324.88;;;25.14
48003;BMP280;33768;48.578;11.574;2022-07-29T17:00:41;96331.94;;;25.02
48003;BMP280;33768;48.578;11.574;2022-07-29T17:03:45;96347.75;;;24.84
48003;BMP280;33768;48.578;11.574;2022-07-29T17:07:08;96348.91;;;24.66
48003;BMP280;33768;48.578;11.574;2022-07-29T17:10:12;96360.91;;;24.55
48003;BMP280;33768;48.578;11.574;2022-07-29T17:13:16;96349.22;;;24.32
48003;BMP280;33768;48.578;11.574;2022-07-29T17:16:20;96354.31;;;24.11
48003;BMP280;33768;48.578;11.574;2022-07-29T17:19:29;96365.44;;;23.97
48003;BMP280;33768;48.578;11.574;2022-07-29T17:22:34;96358.38;;;23.83
48003;BMP280;33768;48.578;11.574;2022-07-29T17:25:39;96362.47;;;23.69
48003;BMP280;33768;48.578;11.574;2022-07-29T17:28:43;96362.25;;;23.65
48003;BMP280;33768;48.578;11.574;2022-07-29T17:36:40;96379.75;;;23.43
48003;BMP280;33768;48.578;11.574;2022-07-29T17:39:44;96382.06;;;23.35
48003;BMP280;33768;48.578;11.574;2022-07-29T17:42:49;96388.41;;;23.24
48003;BMP280;33768;48.578;11.574;2022-07-29T17:45:53;96384.56;;;23.18
48003;BMP280;33768;48.578;11.574;2022-07-29T17:48:57;96397.03;;;23.05
48003;BMP280;33768;48.578;11.574;2022-07-29T17:52:02;96396.25;;;22.92
48003;BMP280;33768;48.578;11.574;2022-07-29T17:55:07;96408.09;;;22.81
48003;BMP280;33768;48.578;11.574;2022-07-29T17:58:13;96412.69;;;22.65
48003;BMP280;33768;48.578;11.574;2022-07-29T18:01:17;96409.41;;;22.57
48003;BMP280;33768;48.578;11.574;2022-07-29T18:04:21;96411.13;;;22.51
48003;BMP280;33768;48.578;11.574;2022-07-29T18:07:26;96417.28;;;22.49
48003;BMP280;33768;48.578;11.574;2022-07-29T18:10:30;96416.66;;;22.39
48003;BMP280;33768;48.578;11.574;2022-07-29T18:13:34;96424.03;;;22.24
48003;BMP280;33768;48.578;11.574;2022-07-29T18:16:38;96420.16;;;22.17
48003;BMP280;33768;48.578;11.574;2022-07-29T18:19:42;96419.50;;;22.07
48003;BMP280;33768;48.578;11.574;2022-07-29T18:22:46;96429.88;;;21.96